Pittsburgh, Pennsylvania
Traffic Map
Current Weather Conditions
Pittsburgh, Pennsylvania
Scattered Clouds
Scattered Clouds
15°
Feels Like: 2°
Wind Chill: Ceiling: Unl
Heat Index: 15° Visibility: 10mi
Dew Point: Wind: 12mph
Humidity: 61% Direction: 250° (WSW)
Pressure: 29.82in Gusts: 0mph
Raw Report DataKAGC 131353Z 25010KT 10SM SCT041 M09/M16 A2982 RMK AO2 SLP123 T10941156
Traffic Incident Summary
Active as of:
Severity:
Category:
InformationThere was an issue retrieving the traffic information for this location. Please try a different location or try again shortly.
Advertisements